Terminal Aerodrome Forecast
Issued by NWS Twin Cities, MN

Home | Current Version | Previous Version | Graphics & Text | Print | Product List | Glossary On
Versions: 1 2 3 4 5 6 7 8 9 10 11 12 13 14 15 16 17 18 19 20 21 22 23 24 25 26 27 28
003
FTUS43 KMPX 202113 AAA
TAFMSP
TAF AMD
KMSP 202113Z 2021/2124 31007KT P6SM FEW050 SCT150
     FM210600 01004KT P6SM BKN080
     FM211100 03004KT P6SM SCT100 BKN250
     FM212000 16004KT P6SM SCT040 BKN080=

USA.gov is the U.S. government's official web portal to all federal, state and local government web resources and services.